Time;durP1;ratioP1;P1;durP2;ratioP2;P2;SDS_P1;SDS_P2;PMS_P1;PMS_P2;Temp;Humidity;BMP_temperature;BMP_pressure;BME280_temperature;BME280_humidity;BME280_pressure;Samples;Min_cycle;Max_cycle;Signal;HPM_P1;HPM_P2
2023/10/19 00:02:19;;;;;;;6.90;4.93;;;12.50;99.90;;;12.62;88.83;98420.00;5023619;28;20091;-82
2023/10/19 00:04:46;;;;;;;6.93;5.43;;;12.50;99.90;;;12.63;88.94;98413.59;5060914;28;20134;-82
2023/10/19 00:07:15;;;;;;;8.15;5.15;;;12.60;99.90;;;12.65;89.04;98418.66;5009183;28;20073;-82
2023/10/19 00:09:46;;;;;;;11.32;6.30;;;12.60;99.90;;;12.65;89.52;98419.47;5037198;28;20416;-82
2023/10/19 00:12:15;;;;;;;8.18;5.82;;;12.60;99.90;;;12.66;90.32;98421.06;5038502;28;20107;-82
2023/10/19 00:14:42;;;;;;;8.65;5.93;;;12.60;99.90;;;12.67;91.01;98425.34;5021965;28;20046;-82
2023/10/19 00:17:14;;;;;;;9.27;6.10;;;12.60;99.90;;;12.68;90.82;98410.88;5021703;28;20540;-82
2023/10/19 00:19:57;;;;;;;9.27;6.10;;;12.60;99.90;;;12.70;90.86;98403.41;5039746;28;20136;-82
2023/10/19 00:22:25;;;;;;;8.23;6.00;;;12.70;99.90;;;12.72;91.02;98398.56;5020985;28;20041;-82
2023/10/19 00:24:52;;;;;;;8.13;5.75;;;12.70;99.90;;;12.74;90.93;98399.09;5022229;28;20048;-82
2023/10/19 00:27:22;;;;;;;8.50;5.97;;;12.70;99.90;;;12.76;90.85;98399.63;5037767;28;20447;-82
2023/10/19 00:29:50;;;;;;;7.82;6.00;;;12.70;99.90;;;12.77;91.41;98395.84;5018026;28;20103;-82
2023/10/19 00:32:19;;;;;;;10.32;7.05;;;12.70;99.90;;;12.78;90.99;98394.78;5002657;28;20042;-82
2023/10/19 00:34:51;;;;;;;9.50;6.60;;;12.70;99.90;;;12.80;91.78;98403.34;5020140;28;20060;-82
2023/10/19 00:37:26;;;;;;;12.95;6.82;;;12.80;99.90;;;12.81;91.89;98401.47;5037736;28;20037;-82
2023/10/19 00:39:55;;;;;;;11.23;6.78;;;12.80;99.90;;;12.83;92.13;98400.13;5020828;28;20049;-82
2023/10/19 00:42:30;;;;;;;9.20;6.78;;;12.80;99.90;;;12.84;91.79;98407.06;5036259;28;20049;-82
2023/10/19 00:45:04;;;;;;;10.68;6.55;;;12.80;99.90;;;12.85;92.32;98397.94;5026918;28;20046;-82
2023/10/19 00:47:39;;;;;;;8.80;6.25;;;12.80;99.90;;;12.87;92.28;98395.78;5035635;28;20500;-82
2023/10/19 00:50:17;;;;;;;10.70;7.10;;;12.80;99.90;;;12.89;91.94;98392.84;5003264;28;20046;-82
2023/10/19 00:52:49;;;;;;;10.80;6.57;;;12.90;99.90;;;12.88;92.09;98392.06;5039961;28;20064;-82
2023/10/19 00:55:20;;;;;;;9.90;7.03;;;12.90;99.90;;;12.89;91.62;98395.53;5046965;28;20504;-82
2023/10/19 00:57:49;;;;;;;11.23;7.22;;;12.90;99.90;;;12.89;91.35;98390.19;5047300;28;20049;-82
2023/10/19 01:00:30;;;;;;;11.73;8.02;;;12.90;99.90;;;12.91;92.01;98384.53;5039955;28;20077;-82
2023/10/19 01:03:04;;;;;;;10.65;6.82;;;12.90;99.90;;;12.91;91.81;98385.34;5041961;28;20121;-82
2023/10/19 01:05:35;;;;;;;11.82;7.35;;;12.80;99.90;;;12.93;92.05;98399.22;5041451;28;20461;-82
2023/10/19 01:08:13;;;;;;;11.15;7.60;;;12.90;99.90;;;12.95;92.68;98390.94;5028132;28;20046;-82
2023/10/19 01:10:42;;;;;;;10.70;7.35;;;12.90;99.90;;;12.95;93.57;98386.38;5039669;28;20037;-82
2023/10/19 01:13:12;;;;;;;10.45;7.30;;;12.90;99.90;;;12.96;93.59;98381.84;5004779;28;20041;-82
2023/10/19 01:15:40;;;;;;;9.77;7.32;;;12.90;99.90;;;12.98;93.47;98393.03;5020647;28;20049;-82
2023/10/19 01:18:13;;;;;;;11.23;7.88;;;12.90;99.90;;;12.99;94.17;98389.31;5004605;28;20053;-82
2023/10/19 01:20:50;;;;;;;11.48;7.38;;;13.00;99.90;;;13.00;93.79;98390.91;5021064;28;20128;-82
2023/10/19 01:23:25;;;;;;;12.52;7.35;;;13.00;99.90;;;13.00;94.51;98391.72;5018833;28;20074;-82
2023/10/19 01:26:05;;;;;;;11.63;7.32;;;13.00;99.90;;;13.01;94.46;98390.63;5022631;28;20055;-82
2023/10/19 01:28:47;;;;;;;9.50;7.13;;;13.00;99.90;;;13.04;95.89;98390.06;5022393;28;20045;-82
2023/10/19 01:31:22;;;;;;;9.32;7.13;;;13.00;99.90;;;13.05;95.41;98382.84;5016547;28;20046;-82
2023/10/19 01:33:50;;;;;;;9.85;7.00;;;13.00;99.90;;;13.07;95.74;98388.72;5031792;28;20128;-82
2023/10/19 01:36:25;;;;;;;8.90;6.68;;;13.10;99.90;;;13.07;95.75;98378.78;5041535;28;20053;-82
2023/10/19 01:38:54;;;;;;;11.05;6.88;;;13.00;99.90;;;13.08;95.11;98376.94;5008792;28;20050;-82
2023/10/19 01:41:23;;;;;;;9.50;6.72;;;13.00;99.90;;;13.11;95.60;98376.38;5026363;28;20504;-82
2023/10/19 01:43:53;;;;;;;10.23;6.22;;;13.10;99.90;;;13.14;95.76;98378.50;5039969;28;20509;-82
2023/10/19 01:46:23;;;;;;;9.15;6.10;;;13.10;99.90;;;13.17;95.93;98377.91;5021648;28;20523;-82
2023/10/19 01:48:54;;;;;;;11.85;6.60;;;13.10;99.90;;;13.18;96.39;98379.53;5025385;28;20428;-82
2023/10/19 01:51:24;;;;;;;10.35;6.22;;;13.10;99.90;;;13.23;97.00;98384.09;5025603;28;20053;-82
2023/10/19 01:53:52;;;;;;;10.23;6.30;;;13.20;99.90;;;13.23;96.93;98382.22;5041715;28;20041;-82
2023/10/19 01:56:21;;;;;;;10.02;5.90;;;13.20;99.90;;;13.25;97.01;98379.25;5020989;28;20083;-82
2023/10/19 01:58:48;;;;;;;11.00;6.85;;;13.20;99.90;;;13.26;96.89;98373.59;5019746;28;20037;-82
2023/10/19 02:01:28;;;;;;;10.90;6.80;;;13.20;99.90;;;13.28;97.46;98371.47;5021804;28;20463;-82
2023/10/19 02:03:58;;;;;;;11.52;6.63;;;13.20;99.90;;;13.31;97.50;98372.75;5007386;28;20072;-82
2023/10/19 02:06:28;;;;;;;11.23;6.78;;;13.30;99.90;;;13.31;97.48;98368.22;5020196;28;20589;-82
2023/10/19 02:09:00;;;;;;;10.32;6.15;;;13.30;99.90;;;13.32;97.23;98372.50;5006099;28;20041;-82
2023/10/19 02:11:29;;;;;;;8.18;5.55;;;13.30;99.90;;;13.34;97.77;98367.66;5022045;28;20073;-82
2023/10/19 02:13:59;;;;;;;10.43;6.30;;;13.30;99.90;;;13.36;98.08;98370.84;5021356;28;20389;-82
2023/10/19 02:16:29;;;;;;;10.40;6.43;;;13.40;99.90;;;13.37;98.69;98366.28;5021062;28;20080;-82
2023/10/19 02:18:57;;;;;;;11.93;5.55;;;13.40;99.90;;;13.40;99.24;98363.84;5004892;28;20063;-82
2023/10/19 02:21:27;;;;;;;9.45;5.88;;;13.40;99.90;;;13.42;99.38;98360.09;5004996;28;20412;-82
2023/10/19 02:23:54;;;;;;;9.68;5.90;;;13.50;99.90;;;13.44;98.94;98364.09;4999575;28;20417;-82
2023/10/19 02:26:27;;;;;;;9.70;5.38;;;13.50;99.90;;;13.45;98.62;98360.31;5020423;28;20046;-82
2023/10/19 02:28:55;;;;;;;8.15;5.28;;;13.50;99.90;;;13.44;98.41;98357.94;5021067;28;20053;-82
2023/10/19 02:31:25;;;;;;;6.95;4.75;;;13.50;99.90;;;13.45;98.10;98359.53;5038562;28;20060;-82
2023/10/19 02:33:58;;;;;;;;;;;13.50;99.90;;;13.46;97.67;98355.75;5037794;28;20052;-82
2023/10/19 02:36:28;;;;;;;7.88;4.45;;;13.50;99.90;;;13.47;98.38;98357.34;5020621;28;20012;-82
2023/10/19 02:38:58;;;;;;;10.65;4.78;;;13.50;99.90;;;13.47;98.14;98355.50;5037441;28;20053;-82
2023/10/19 02:41:28;;;;;;;7.55;4.70;;;13.50;99.90;;;13.47;98.05;98355.50;5023519;28;20048;-82
2023/10/19 02:44:01;;;;;;;10.15;4.50;;;13.40;99.90;;;13.46;97.78;98353.88;5036820;28;20038;-82
2023/10/19 02:46:30;;;;;;;6.82;4.32;;;13.40;99.90;;;13.45;97.23;98351.50;5027365;28;20128;-82
2023/10/19 02:48:57;;;;;;;10.45;5.10;;;13.40;99.90;;;13.46;97.25;98347.72;5020986;28;20111;-82
2023/10/19 02:51:25;;;;;;;8.85;4.30;;;13.40;99.90;;;13.46;97.35;98345.06;5038477;28;20414;-82
2023/10/19 02:53:53;;;;;;;8.32;4.28;;;13.40;99.90;;;13.47;97.11;98352.00;5041385;28;20041;-82
2023/10/19 02:56:23;;;;;;;9.27;4.60;;;13.40;99.90;;;13.48;97.51;98350.94;5007652;28;20444;-82
2023/10/19 02:58:51;;;;;;;9.07;4.40;;;13.50;99.90;;;13.49;97.16;98341.81;5014065;28;20042;-82
2023/10/19 03:01:22;;;;;;;11.05;4.53;;;13.50;99.90;;;13.50;96.55;98351.44;5026397;28;20041;-82
2023/10/19 03:03:51;;;;;;;9.65;4.28;;;13.40;99.90;;;13.49;96.66;98345.28;5044204;28;20038;-82
2023/10/19 03:06:22;;;;;;;6.90;4.07;;;13.50;99.90;;;13.50;96.38;98340.72;5010879;28;20528;-82
2023/10/19 03:08:57;;;;;;;8.93;4.53;;;13.40;99.90;;;13.52;96.25;98343.94;5022561;28;20069;-82
2023/10/19 03:11:27;;;;;;;7.40;4.57;;;13.40;99.90;;;13.50;96.68;98338.06;5022080;28;20053;-82
2023/10/19 03:13:57;;;;;;;9.52;4.60;;;13.50;99.90;;;13.52;96.25;98349.31;5007116;28;20530;-82
2023/10/19 03:16:28;;;;;;;10.40;4.20;;;13.40;99.90;;;13.52;95.94;98349.31;5017492;28;20072;-82
2023/10/19 03:18:55;;;;;;;7.80;4.22;;;13.40;99.90;;;13.54;96.02;98347.13;5043896;28;20076;-82
2023/10/19 03:21:26;;;;;;;9.90;4.05;;;13.40;99.90;;;13.55;96.05;98343.38;5025815;28;20113;-82
2023/10/19 03:23:53;;;;;;;7.53;4.32;;;13.50;99.90;;;13.58;95.93;98342.81;5026849;28;20038;-82
2023/10/19 03:29:26;;;;;;;7.95;3.75;;;13.50;99.90;;;13.58;96.56;98334.78;5121302;27;20403;-82
2023/10/19 03:31:54;;;;;;;8.13;3.67;;;13.50;99.90;;;13.59;96.49;98336.38;5108396;28;20419;-81
2023/10/19 03:34:23;;;;;;;9.95;4.40;;;13.50;99.90;;;13.60;96.82;98337.97;5096232;28;20063;-83
2023/10/19 03:36:51;;;;;;;8.90;3.90;;;13.50;99.90;;;13.61;96.97;98339.53;5080541;28;20068;-82
2023/10/19 03:39:21;;;;;;;7.38;3.53;;;13.50;99.90;;;13.62;97.19;98330.44;5100137;28;20048;-82
2023/10/19 03:41:51;;;;;;;6.35;4.18;;;13.50;99.90;;;13.61;97.18;98326.16;5081612;28;20517;-82
2023/10/19 03:44:24;;;;;;;6.35;3.22;;;13.50;99.90;;;13.63;97.75;98324.81;5073518;28;20044;-83
2023/10/19 03:46:57;;;;;;;6.80;3.30;;;13.60;99.90;;;13.65;97.77;98313.78;5091197;28;20048;-85
2023/10/19 03:49:30;;;;;;;7.18;3.05;;;13.60;99.90;;;13.64;97.43;98313.00;5084661;28;20535;-84
2023/10/19 03:52:02;;;;;;;6.70;3.40;;;13.60;99.90;;;13.67;97.10;98317.00;5081638;28;20067;-85
2023/10/19 03:54:32;;;;;;;7.03;3.10;;;13.60;99.90;;;13.67;97.46;98325.03;5074641;28;20575;-85
2023/10/19 03:57:06;;;;;;;8.93;3.50;;;13.60;99.90;;;13.65;97.45;98317.28;5053660;28;20040;-84
2023/10/19 03:59:34;;;;;;;6.85;3.45;;;13.60;99.90;;;13.67;97.39;98319.69;5084508;28;20076;-85
2023/10/19 04:02:09;;;;;;;4.75;2.97;;;13.60;99.90;;;13.68;97.12;98315.91;5089507;28;20048;-85
2023/10/19 04:04:39;;;;;;;8.48;3.70;;;13.60;99.90;;;13.69;97.34;98314.81;5081229;28;20037;-85
2023/10/19 04:07:13;;;;;;;7.03;3.72;;;13.60;99.90;;;13.68;97.34;98309.75;5071298;28;20047;-85
2023/10/19 04:09:57;;;;;;;6.78;3.17;;;13.60;99.90;;;13.69;97.33;98308.69;5053896;28;20059;-85
2023/10/19 04:12:24;;;;;;;8.00;3.28;;;13.60;99.90;;;13.69;97.07;98317.50;5083637;28;20064;-85
2023/10/19 04:14:53;;;;;;;7.90;3.63;;;13.60;99.90;;;13.69;97.33;98312.16;5070587;28;20052;-85
2023/10/19 04:17:24;;;;;;;7.50;3.80;;;13.60;99.90;;;13.68;97.00;98302.53;5078403;28;20064;-86
2023/10/19 04:19:52;;;;;;;8.35;3.38;;;13.60;99.90;;;13.69;96.97;98309.47;5090624;28;20048;-85
2023/10/19 04:22:23;;;;;;;9.93;3.70;;;13.60;99.90;;;13.69;97.23;98306.78;5088959;28;20442;-84
2023/10/19 04:24:52;;;;;;;10.30;4.18;;;13.60;99.90;;;13.69;96.93;98293.41;5079631;28;20061;-84
2023/10/19 04:27:22;;;;;;;8.90;3.92;;;13.60;99.90;;;13.68;97.00;98294.50;5087022;28;20177;-85
2023/10/19 04:29:50;;;;;;;10.70;3.60;;;13.60;99.90;;;13.70;96.91;98280.81;5083206;28;20052;-85
2023/10/19 04:32:25;;;;;;;10.15;3.50;;;13.60;99.90;;;13.71;96.79;98282.38;5082442;28;20040;-85
2023/10/19 04:34:54;;;;;;;8.13;3.63;;;13.60;99.90;;;13.71;96.12;98296.56;5072036;28;20068;-85
2023/10/19 04:37:23;;;;;;;7.13;3.75;;;13.60;99.90;;;13.71;96.13;98296.56;5063484;28;20110;-85
2023/10/19 04:39:51;;;;;;;8.90;4.13;;;13.60;99.90;;;13.72;96.06;98290.16;5091218;28;20062;-82
2023/10/19 04:42:22;;;;;;;8.77;3.92;;;13.60;99.90;;;13.72;95.70;98297.41;5086583;28;20108;-82
2023/10/19 04:44:49;;;;;;;8.85;3.95;;;13.60;99.90;;;13.73;95.72;98293.63;5084895;28;20127;-82
2023/10/19 04:47:17;;;;;;;8.15;3.78;;;13.60;99.90;;;13.73;95.72;98294.44;5076936;28;20454;-83
2023/10/19 04:49:45;;;;;;;10.85;4.05;;;13.60;99.90;;;13.74;95.88;98290.66;5086187;28;20075;-82
2023/10/19 04:52:14;;;;;;;7.57;3.50;;;13.60;99.90;;;13.74;95.61;98289.88;5076690;28;20123;-82
2023/10/19 04:54:42;;;;;;;8.27;3.40;;;13.60;99.90;;;13.73;95.14;98291.75;5074929;28;20056;-82
2023/10/19 04:57:10;;;;;;;8.15;3.50;;;13.60;99.90;;;13.75;95.03;98292.25;5083336;28;20043;-82
2023/10/19 04:59:38;;;;;;;10.50;4.10;;;13.60;99.90;;;13.74;95.33;98296.03;5081354;28;20131;-83
2023/10/19 05:02:06;;;;;;;6.57;3.63;;;13.60;99.90;;;13.74;95.64;98293.34;5063190;28;20052;-82
2023/10/19 05:04:35;;;;;;;11.93;3.60;;;13.60;99.90;;;13.74;95.57;98289.88;5040841;28;20060;-82
2023/10/19 05:07:03;;;;;;;12.00;3.90;;;13.60;99.90;;;13.76;95.59;98279.66;5077421;28;20143;-82
2023/10/19 05:09:33;;;;;;;9.68;3.30;;;13.60;99.90;;;13.77;95.27;98290.09;5078924;28;20072;-82
2023/10/19 05:12:01;;;;;;;7.10;3.25;;;13.60;99.90;;;13.79;94.62;98287.91;5068295;28;20630;-82
2023/10/19 05:14:28;;;;;;;8.48;3.33;;;13.70;99.90;;;13.79;94.74;98297.84;5071970;28;20045;-82
2023/10/19 05:16:56;;;;;;;7.47;3.28;;;13.70;99.90;;;13.76;94.53;98295.72;5075453;28;20054;-83
2023/10/19 05:19:24;;;;;;;7.05;3.38;;;13.70;99.90;;;13.75;94.04;98302.97;5078120;28;20092;-82
2023/10/19 05:21:52;;;;;;;9.45;3.50;;;13.40;99.90;;;13.74;94.29;98309.41;5084406;28;20051;-83
2023/10/19 05:24:19;;;;;;;8.93;3.78;;;13.60;99.90;;;13.75;93.93;98304.84;5083670;28;20048;-83
2023/10/19 05:26:49;;;;;;;10.77;3.40;;;13.60;99.90;;;13.74;93.77;98298.69;5083937;28;20036;-83
2023/10/19 05:29:17;;;;;;;7.93;3.65;;;13.60;99.90;;;13.75;94.14;98302.16;5083122;28;20095;-82
2023/10/19 05:31:44;;;;;;;7.65;3.50;;;13.60;99.90;;;13.73;93.98;98296.31;5077684;28;20573;-83
2023/10/19 05:34:12;;;;;;;10.75;4.50;;;13.60;99.90;;;13.74;93.91;98297.91;5085772;28;21497;-83
2023/10/19 05:36:43;;;;;;;7.88;3.60;;;13.60;99.90;;;13.76;94.30;98298.41;5073509;28;20519;-83
2023/10/19 05:39:13;;;;;;;7.30;3.55;;;13.60;99.90;;;13.76;94.09;98309.94;5067568;28;20074;-83
2023/10/19 05:41:40;;;;;;;7.95;3.42;;;13.60;99.90;;;13.75;93.01;98305.66;5052376;28;20055;-83
2023/10/19 05:44:10;;;;;;;7.20;3.63;;;13.60;99.90;;;13.73;92.95;98302.47;5085893;28;20036;-83
2023/10/19 05:46:40;;;;;;;5.65;3.08;;;13.60;99.90;;;13.73;92.50;98299.78;5049171;28;20049;-83
2023/10/19 05:49:09;;;;;;;7.80;3.03;;;13.60;99.90;;;13.72;91.30;98303.56;5071281;28;20087;-83
2023/10/19 05:51:37;;;;;;;7.55;2.80;;;13.60;99.90;;;13.72;91.15;98300.88;5065038;28;20049;-83
2023/10/19 05:54:08;;;;;;;9.32;3.22;;;13.50;99.90;;;13.72;91.05;98311.59;5069674;28;20041;-83
2023/10/19 05:56:35;;;;;;;5.93;3.20;;;13.50;99.90;;;13.68;90.21;98310.56;5101849;28;20037;-83
2023/10/19 05:59:04;;;;;;;6.65;2.78;;;13.50;99.90;;;13.67;90.02;98306.28;5081238;28;20103;-83
2023/10/19 06:01:33;;;;;;;6.90;2.65;;;13.50;99.90;;;13.67;90.37;98317.00;5078856;28;20048;-83
2023/10/19 06:04:02;;;;;;;8.82;3.40;;;13.50;99.90;;;13.67;90.99;98317.00;5068073;28;20044;-83
2023/10/19 06:06:30;;;;;;;8.02;3.47;;;13.50;99.90;;;13.67;91.06;98319.69;5067674;28;20049;-83
2023/10/19 06:08:58;;;;;;;6.88;3.20;;;13.50;99.90;;;13.67;91.50;98324.25;5098052;28;20040;-83
2023/10/19 06:11:32;;;;;;;7.75;2.75;;;13.50;99.90;;;13.68;91.54;98315.13;5080294;28;20059;-83
2023/10/19 06:14:00;;;;;;;9.02;3.00;;;13.50;99.90;;;13.68;91.60;98331.19;5080759;28;20048;-83
2023/10/19 06:16:28;;;;;;;10.35;3.00;;;13.50;99.90;;;13.67;91.24;98333.06;5040207;28;20062;-84
2023/10/19 06:18:57;;;;;;;8.55;2.65;;;13.50;99.90;;;13.67;91.87;98327.72;5080242;28;20478;-83
2023/10/19 06:21:24;;;;;;;5.57;2.83;;;13.50;99.90;;;13.65;90.88;98332.53;5067502;28;20045;-83
2023/10/19 06:23:54;;;;;;;9.05;3.50;;;13.50;99.90;;;13.65;90.71;98335.22;5076476;28;20098;-83
2023/10/19 06:26:21;;;;;;;9.07;3.40;;;13.50;99.90;;;13.68;91.68;98340.03;5082373;28;20040;-83
2023/10/19 06:28:50;;;;;;;12.48;3.78;;;13.50;99.90;;;13.70;92.39;98337.06;5085639;28;20032;-83
2023/10/19 06:31:19;;;;;;;7.38;3.30;;;13.50;99.90;;;13.69;92.27;98340.81;5067697;28;20055;-83
2023/10/19 06:33:46;;;;;;;9.30;3.58;;;13.50;99.90;;;13.70;92.93;98337.84;5072559;28;20048;-83
2023/10/19 06:36:15;;;;;;;30.23;5.80;;;13.50;99.90;;;13.72;93.47;98337.59;5070570;28;20053;-83
2023/10/19 06:38:44;;;;;;;17.73;4.97;;;13.60;99.90;;;13.72;93.42;98345.63;5080441;28;20051;-83
2023/10/19 06:41:12;;;;;;;15.52;4.55;;;13.60;99.90;;;13.72;93.11;98357.13;5081299;28;20049;-84
2023/10/19 06:43:40;;;;;;;27.40;5.65;;;13.60;99.90;;;13.73;93.31;98342.66;5071539;28;20049;-83
2023/10/19 06:46:11;;;;;;;21.20;5.60;;;13.60;99.90;;;13.73;93.35;98348.00;5075294;28;20511;-83
2023/10/19 06:48:39;;;;;;;20.83;5.80;;;13.60;99.90;;;13.74;93.33;98348.81;5064688;28;20048;-83
2023/10/19 06:51:08;;;;;;;14.77;4.43;;;13.60;99.90;;;13.73;93.23;98358.72;5051862;28;20109;-83
2023/10/19 06:53:38;;;;;;;15.35;5.13;;;13.60;99.90;;;13.77;93.90;98357.06;5076049;28;20508;-83
2023/10/19 06:56:06;;;;;;;10.35;4.57;;;13.60;99.90;;;13.77;94.01;98358.97;5075894;28;20063;-83
2023/10/19 06:58:36;;;;;;;10.02;4.95;;;13.70;99.90;;;13.80;94.77;98363.72;5072607;28;20192;-83
2023/10/19 07:01:09;;;;;;;14.02;4.70;;;13.70;99.90;;;13.81;94.73;98365.31;5064517;28;20071;-83
2023/10/19 07:03:36;;;;;;;67.90;10.65;;;13.70;99.90;;;13.80;94.51;98361.84;5066753;28;20139;-83
2023/10/19 07:06:07;;;;;;;53.38;9.45;;;13.70;99.90;;;13.81;94.72;98365.31;5066211;28;20055;-84
2023/10/19 07:08:35;;;;;;;45.88;9.48;;;13.70;99.90;;;13.83;95.15;98365.84;5051792;28;20049;-83
2023/10/19 07:11:04;;;;;;;15.27;5.45;;;13.70;99.90;;;13.84;95.31;98376.28;5081086;28;20098;-83
2023/10/19 07:13:33;;;;;;;18.58;5.68;;;13.70;99.90;;;13.85;95.52;98361.78;5011812;28;20049;-83
2023/10/19 07:16:03;;;;;;;16.52;5.05;;;13.70;99.90;;;13.87;95.55;98365.00;5082907;28;20067;-84
2023/10/19 07:18:32;;;;;;;11.25;5.35;;;13.80;99.90;;;13.90;96.02;98360.94;5082512;28;20480;-83
2023/10/19 07:21:02;;;;;;;17.42;4.97;;;13.80;99.90;;;13.91;96.09;98360.69;5063538;28;20037;-83
2023/10/19 07:23:30;;;;;;;14.52;5.15;;;13.80;99.90;;;13.95;96.67;98362.78;5091658;28;20147;-83
2023/10/19 07:26:00;;;;;;;13.20;4.70;;;13.90;99.90;;;13.96;96.37;98367.03;5063824;28;20112;-84
2023/10/19 07:28:31;;;;;;;14.27;5.93;;;13.90;99.90;;;13.98;96.53;98360.31;5084239;28;20068;-85
2023/10/19 07:31:03;;;;;;;17.95;5.53;;;13.90;99.90;;;13.99;96.65;98367.28;5034148;28;20044;-83
2023/10/19 07:33:31;;;;;;;17.23;6.13;;;13.90;99.90;;;13.99;96.47;98367.28;5086264;28;20070;-83
2023/10/19 07:36:00;;;;;;;20.50;5.80;;;13.90;99.90;;;14.01;96.73;98375.84;5017086;28;20061;-84
2023/10/19 07:38:30;;;;;;;15.43;5.28;;;14.00;99.90;;;14.05;96.66;98373.38;5080993;28;20044;-83
2023/10/19 07:40:58;;;;;;;12.77;5.22;;;14.00;99.90;;;14.05;96.78;98376.84;5070657;28;20041;-84
2023/10/19 07:43:28;;;;;;;17.70;5.03;;;14.00;99.90;;;14.05;96.73;98373.38;5066918;28;20049;-83
2023/10/19 07:45:57;;;;;;;18.73;5.07;;;14.00;99.90;;;14.06;96.86;98378.47;5059329;28;20086;-84
2023/10/19 07:48:26;;;;;;;11.57;5.50;;;14.00;99.90;;;14.07;96.79;98363.97;5093946;28;20056;-83
2023/10/19 07:50:54;;;;;;;13.35;4.72;;;14.00;99.90;;;14.09;97.02;98371.72;5058562;28;20056;-83
2023/10/19 07:53:24;;;;;;;15.45;5.15;;;14.00;99.90;;;14.11;97.44;98373.06;5083472;28;20040;-83
2023/10/19 07:55:52;;;;;;;12.27;4.95;;;14.10;99.90;;;14.13;97.42;98376.22;5067647;28;20036;-82
2023/10/19 07:58:20;;;;;;;9.65;5.22;;;14.10;99.90;;;14.16;97.67;98372.19;5100442;28;20059;-82
2023/10/19 08:00:48;;;;;;;12.52;4.88;;;14.10;99.90;;;14.16;97.56;98370.31;5060200;28;20526;-83
2023/10/19 08:03:17;;;;;;;9.75;4.93;;;14.10;99.90;;;14.19;97.46;98368.94;5082204;28;20075;-83
2023/10/19 08:05:44;;;;;;;10.52;4.78;;;14.20;99.90;;;14.21;97.32;98371.34;5065728;28;20079;-82
2023/10/19 08:08:12;;;;;;;12.48;4.53;;;14.20;99.90;;;14.23;97.54;98369.97;5060253;28;20045;-84
2023/10/19 08:10:40;;;;;;;9.55;5.03;;;14.20;99.90;;;14.23;98.04;98361.91;5056620;28;20033;-84
2023/10/19 08:13:12;;;;;;;11.90;4.70;;;14.20;99.90;;;14.26;98.38;98364.03;5011615;28;20048;-84
2023/10/19 08:15:40;;;;;;;11.45;4.70;;;14.20;99.90;;;14.28;98.28;98369.88;5068051;28;20475;-82
2023/10/19 08:18:07;;;;;;;11.05;5.07;;;14.30;99.90;;;14.28;98.18;98364.53;5088011;28;20049;-83
2023/10/19 08:20:37;;;;;;;11.55;5.07;;;14.30;99.90;;;14.33;98.29;98366.34;5085733;28;20597;-84
2023/10/19 08:23:05;;;;;;;11.60;5.35;;;14.30;99.90;;;14.33;98.34;98356.41;5074059;28;20051;-84
2023/10/19 08:25:33;;;;;;;11.55;4.45;;;14.30;99.90;;;14.35;98.40;98358.84;5077119;28;20041;-84
2023/10/19 08:28:01;;;;;;;12.27;4.93;;;14.30;99.90;;;14.39;98.84;98360.63;5081751;28;20048;-84
2023/10/19 08:30:28;;;;;;;12.63;5.40;;;14.40;99.90;;;14.43;98.67;98369.69;5072481;28;20492;-84
2023/10/19 08:32:57;;;;;;;15.40;4.85;;;14.50;99.90;;;14.47;98.62;98363.75;5083992;28;20048;-84
2023/10/19 08:35:25;;;;;;;11.48;4.30;;;14.50;99.90;;;14.51;98.45;98356.78;5083767;28;20052;-84
2023/10/19 08:37:54;;;;;;;12.65;4.47;;;14.50;99.90;;;14.53;98.84;98352.69;5080569;28;20484;-84
2023/10/19 08:40:23;;;;;;;9.95;4.30;;;14.60;99.90;;;14.57;98.43;98352.94;5082211;28;20079;-84
2023/10/19 08:42:51;;;;;;;9.63;4.25;;;14.60;99.90;;;14.61;99.09;98348.59;5082055;28;20499;-84
2023/10/19 08:45:21;;;;;;;10.75;4.20;;;14.70;99.90;;;14.64;99.75;98356.84;5067264;28;20097;-84
2023/10/19 08:47:56;;;;;;;7.65;3.78;;;14.70;99.90;;;14.68;100.00;98343.63;5081909;28;20052;-84
2023/10/19 08:50:26;;;;;;;11.55;4.15;;;14.70;99.90;;;14.71;99.86;98344.97;5097346;28;20040;-84
2023/10/19 08:52:58;;;;;;;13.57;4.18;;;14.80;99.90;;;14.74;99.17;98345.19;5064572;28;20044;-84
2023/10/19 08:55:27;;;;;;;13.68;3.72;;;14.80;99.90;;;14.78;99.18;98345.38;5067837;28;20045;-84
2023/10/19 08:57:54;;;;;;;10.85;3.90;;;14.80;99.90;;;14.80;98.74;98341.34;5081387;28;20052;-83
2023/10/19 09:00:24;;;;;;;15.95;5.03;;;14.90;99.90;;;14.84;98.49;98345.03;5067651;28;20520;-84
2023/10/19 09:02:53;;;;;;;10.32;4.60;;;14.90;99.90;;;14.88;98.61;98343.38;5062826;28;20049;-84
2023/10/19 09:05:22;;;;;;;11.63;4.70;;;15.00;99.90;;;14.90;98.38;98346.53;5067089;28;20051;-83
2023/10/19 09:07:54;;;;;;;9.73;3.78;;;15.00;99.90;;;14.93;98.41;98339.78;5076189;28;20555;-84
2023/10/19 09:10:25;;;;;;;12.60;3.88;;;15.00;99.90;;;14.96;98.40;98335.72;5025228;28;20067;-84
2023/10/19 09:13:03;;;;;;;8.07;3.83;;;15.00;99.90;;;14.97;97.69;98332.75;5071125;28;20084;-84
2023/10/19 09:15:32;;;;;;;9.98;3.75;;;15.10;99.90;;;14.99;97.47;98338.63;5079795;28;20538;-84
2023/10/19 09:18:13;;;;;;;10.38;4.28;;;15.10;99.90;;;15.02;97.59;98334.56;5082774;28;20040;-84
2023/10/19 09:20:42;;;;;;;10.15;3.50;;;15.10;99.90;;;15.08;97.50;98336.88;5075550;28;20500;-84
2023/10/19 09:23:10;;;;;;;12.77;3.92;;;15.20;99.90;;;15.14;98.48;98333.03;5080338;28;20112;-84
2023/10/19 09:25:40;;;;;;;10.45;3.97;;;15.30;99.90;;;15.19;98.66;98335.63;5077316;28;20051;-84
2023/10/19 09:28:10;;;;;;;8.82;3.55;;;15.30;99.90;;;15.24;98.48;98332.06;5070775;28;20044;-84
2023/10/19 09:30:39;;;;;;;11.40;3.70;;;15.40;99.90;;;15.29;97.71;98333.84;5045096;28;20056;-84
2023/10/19 09:33:09;;;;;;;9.73;3.90;;;15.50;99.90;;;15.31;96.93;98332.47;5056368;28;20052;-84
2023/10/19 09:35:38;;;;;;;10.23;3.63;;;15.50;99.90;;;15.33;96.38;98330.28;5069195;28;20538;-84
2023/10/19 09:38:06;;;;;;;12.80;3.40;;;15.50;99.90;;;15.35;95.54;98320.03;5076396;28;20049;-83
2023/10/19 09:40:34;;;;;;;9.73;3.97;;;15.50;99.90;;;15.38;95.28;98324.81;5077666;28;21183;-84
2023/10/19 09:43:09;;;;;;;10.75;3.38;;;15.50;99.90;;;15.45;95.61;98325.22;5072902;28;20066;-83
2023/10/19 09:45:42;;;;;;;11.77;3.22;;;15.60;99.90;;;15.49;95.00;98321.97;5068748;28;20036;-84
2023/10/19 09:48:16;;;;;;;12.50;2.88;;;15.60;99.90;;;15.52;94.98;98324.03;5060692;28;20078;-84
2023/10/19 09:50:48;;;;;;;13.73;3.83;;;15.70;99.90;;;15.54;94.04;98321.88;5077826;28;20123;-84
2023/10/19 09:53:15;;;;;;;;;;;15.70;99.90;;;15.56;93.85;98322.34;5069768;28;20067;-83
2023/10/19 09:55:46;;;;;;;7.65;2.53;;;15.70;99.90;;;15.57;93.21;98313.22;5070473;28;19921;-83
2023/10/19 09:58:24;;;;;;;10.05;2.90;;;15.80;99.90;;;15.61;93.59;98314.19;5060953;28;20431;-84
2023/10/19 10:00:52;;;;;;;8.18;2.70;;;15.80;99.90;;;15.64;91.82;98313.66;5083978;28;20091;-84
2023/10/19 10:03:51;;;;;;;13.30;2.78;;;15.90;99.90;;;15.64;92.10;98319.81;5063781;28;20101;-84
2023/10/19 10:06:28;;;;;;;10.32;2.80;;;15.80;99.90;;;15.63;91.79;98326.28;5081811;28;20434;-84
2023/10/19 10:08:57;;;;;;;13.68;3.20;;;15.80;99.90;;;15.62;91.69;98323.88;5044463;28;20084;-83
2023/10/19 10:11:27;;;;;;;12.10;2.70;;;15.80;99.90;;;15.65;91.31;98309.84;5062287;28;20087;-83
2023/10/19 10:13:57;;;;;;;7.95;2.60;;;15.90;99.90;;;15.72;91.81;98315.66;5060788;28;20512;-83
2023/10/19 10:16:26;;;;;;;7.50;2.88;;;15.90;99.90;;;15.81;91.45;98305.81;5065803;28;20048;-84
2023/10/19 10:19:00;;;;;;;9.25;2.78;;;16.00;99.90;;;15.91;91.73;98305.59;5060239;28;20068;-84
2023/10/19 10:21:29;;;;;;;9.98;2.80;;;16.10;99.90;;;15.98;91.33;98290.97;5062576;28;20051;-83
2023/10/19 10:23:59;;;;;;;7.72;2.42;;;16.20;99.90;;;16.00;89.22;98305.69;5061283;28;20049;-83
2023/10/19 10:26:35;;;;;;;10.18;2.53;;;16.20;99.90;;;16.07;89.53;98299.91;5066130;28;20051;-84
2023/10/19 10:29:19;;;;;;;9.73;2.35;;;16.30;99.90;;;16.08;88.78;98306.88;5080316;28;20048;-85
2023/10/19 10:31:49;;;;;;;11.65;2.75;;;16.30;99.90;;;16.11;88.29;98307.09;5080701;28;20040;-83